createdAt,value
2023-11-15T00:01:27.979Z,6.28
2023-11-15T00:03:54.998Z,5.43
2023-11-15T00:06:22.138Z,5.40
2023-11-15T00:08:49.224Z,5.40
2023-11-15T00:11:20.383Z,5.18
2023-11-15T00:13:51.742Z,4.93
2023-11-15T00:16:19.248Z,5.60
2023-11-15T00:18:46.444Z,6.28
2023-11-15T00:21:13.428Z,5.18
2023-11-15T00:23:40.448Z,5.85
2023-11-15T00:26:07.454Z,5.22
2023-11-15T00:28:34.444Z,5.40
2023-11-15T00:31:01.314Z,5.35
2023-11-15T00:33:28.284Z,5.00
2023-11-15T00:35:55.610Z,5.57
2023-11-15T00:38:23.345Z,4.85
2023-11-15T00:40:50.584Z,5.70
2023-11-15T00:43:19.927Z,5.15
2023-11-15T00:45:47.131Z,5.68
2023-11-15T00:48:15.628Z,5.60
2023-11-15T00:50:42.974Z,4.90
2023-11-15T00:53:10.215Z,5.38
2023-11-15T00:55:37.273Z,4.72
2023-11-15T00:58:05.113Z,5.50
2023-11-15T01:00:40.741Z,5.68
2023-11-15T01:03:08.018Z,5.60
2023-11-15T01:05:35.104Z,4.88
2023-11-15T01:08:05.738Z,5.18
2023-11-15T01:10:35.426Z,5.22
2023-11-15T01:13:02.674Z,5.40
2023-11-15T01:15:30.056Z,5.50
2023-11-15T01:17:58.412Z,5.22
2023-11-15T01:20:26.362Z,5.43
2023-11-15T01:22:53.488Z,6.50
2023-11-15T01:25:21.819Z,5.28
2023-11-15T01:27:48.755Z,5.07
2023-11-15T01:30:15.852Z,5.63
2023-11-15T01:32:42.806Z,6.03
2023-11-15T01:35:10.039Z,5.30
2023-11-15T01:37:37.004Z,5.10
2023-11-15T01:40:07.624Z,5.57
2023-11-15T01:42:35.159Z,5.53
2023-11-15T01:45:04.018Z,5.47
2023-11-15T01:47:31.631Z,5.38
2023-11-15T01:49:59.983Z,4.70
2023-11-15T01:52:28.877Z,5.03
2023-11-15T01:54:57.846Z,4.95
2023-11-15T01:57:24.812Z,4.20
2023-11-15T01:59:52.676Z,4.78
2023-11-15T02:02:19.714Z,4.88
2023-11-15T02:04:46.823Z,4.65
2023-11-15T02:07:13.782Z,4.40
2023-11-15T02:09:42.331Z,4.95
2023-11-15T02:12:10.443Z,4.00
2023-11-15T02:14:38.941Z,5.07
2023-11-15T02:17:08.628Z,4.75
2023-11-15T02:19:35.573Z,4.53
2023-11-15T02:22:02.515Z,4.60
2023-11-15T02:24:30.160Z,4.90
2023-11-15T02:26:57.141Z,4.78
2023-11-15T02:29:24.286Z,4.15
2023-11-15T02:31:51.248Z,4.30
2023-11-15T02:34:19.049Z,4.70
2023-11-15T02:36:46.016Z,4.78
2023-11-15T02:39:14.450Z,4.22
2023-11-15T02:41:44.156Z,4.75
2023-11-15T02:44:11.629Z,4.72
2023-11-15T02:46:38.640Z,4.82
2023-11-15T02:49:05.644Z,4.95
2023-11-15T02:51:32.854Z,5.07
2023-11-15T02:53:59.963Z,4.70
2023-11-15T02:56:27.159Z,4.88
2023-11-15T02:58:54.193Z,4.82
2023-11-15T03:01:21.160Z,5.20
2023-11-15T03:03:48.831Z,4.85
2023-11-15T03:06:16.007Z,4.82
2023-11-15T03:08:42.940Z,5.47
2023-11-15T03:11:09.879Z,4.65
2023-11-15T03:13:36.858Z,5.20
2023-11-15T03:16:04.020Z,4.50
2023-11-15T03:18:31.067Z,4.88
2023-11-15T03:20:58.129Z,4.57
2023-11-15T03:23:25.962Z,5.60
2023-11-15T03:25:52.923Z,4.95
2023-11-15T03:28:19.832Z,4.35
2023-11-15T03:30:46.700Z,4.72
2023-11-15T03:33:13.700Z,4.63
2023-11-15T03:35:40.845Z,4.38
2023-11-15T03:38:07.768Z,5.57
2023-11-15T03:40:35.294Z,4.80
2023-11-15T03:43:02.375Z,6.38
2023-11-15T03:45:29.234Z,5.85
2023-11-15T03:47:56.276Z,5.43
2023-11-15T03:50:23.402Z,5.75
2023-11-15T03:52:50.318Z,6.03
2023-11-15T03:55:18.258Z,5.30
2023-11-15T03:57:47.669Z,5.28
2023-11-15T04:00:18.042Z,5.97
2023-11-15T04:02:46.529Z,5.55
2023-11-15T04:05:14.382Z,5.78
2023-11-15T04:07:43.202Z,5.70
2023-11-15T04:10:11.697Z,5.53
2023-11-15T04:12:38.981Z,4.55
2023-11-15T04:15:06.678Z,5.57
2023-11-15T04:17:33.641Z,5.43
2023-11-15T04:20:00.672Z,6.28
2023-11-15T04:22:27.534Z,5.88
2023-11-15T04:24:54.384Z,6.35
2023-11-15T04:27:21.311Z,6.07
2023-11-15T04:29:48.204Z,5.32
2023-11-15T04:32:15.088Z,5.75
2023-11-15T04:34:42.783Z,5.45
2023-11-15T04:37:10.422Z,5.68
2023-11-15T04:39:37.300Z,6.30
2023-11-15T04:42:05.481Z,6.78
2023-11-15T04:44:32.533Z,5.55
2023-11-15T04:46:59.514Z,5.78
2023-11-15T04:49:26.525Z,5.50
2023-11-15T04:51:53.363Z,5.43
2023-11-15T04:54:20.251Z,5.50
2023-11-15T04:56:47.432Z,6.03
2023-11-15T04:59:14.912Z,5.65
2023-11-15T05:01:43.094Z,5.45
2023-11-15T05:04:10.442Z,5.72
2023-11-15T05:06:37.550Z,5.40
2023-11-15T05:09:04.493Z,5.30
2023-11-15T05:11:31.525Z,5.60
2023-11-15T05:13:58.410Z,5.03
2023-11-15T05:16:25.399Z,6.32
2023-11-15T05:18:52.513Z,5.43
2023-11-15T05:21:19.852Z,5.45
2023-11-15T05:23:46.952Z,6.72
2023-11-15T05:26:14.120Z,6.43
2023-11-15T05:28:43.914Z,7.07
2023-11-15T05:31:10.874Z,9.85
2023-11-15T05:33:37.951Z,9.93
2023-11-15T05:36:05.654Z,9.38
2023-11-15T05:38:32.613Z,9.70
2023-11-15T05:40:59.720Z,8.45
2023-11-15T05:43:26.661Z,7.03
2023-11-15T05:45:53.527Z,6.25
2023-11-15T05:48:20.571Z,6.28
2023-11-15T05:50:47.691Z,6.30
2023-11-15T05:53:14.706Z,5.72
2023-11-15T05:55:43.568Z,6.20
2023-11-15T05:58:13.285Z,5.47
2023-11-15T06:00:40.151Z,5.82
2023-11-15T06:03:09.679Z,6.72
2023-11-15T06:05:36.648Z,6.90
2023-11-15T06:08:05.273Z,6.93
2023-11-15T06:10:32.524Z,6.57
2023-11-15T06:12:59.384Z,6.25
2023-11-15T06:15:26.565Z,6.20
2023-11-15T06:17:53.700Z,8.18
2023-11-15T06:20:20.722Z,9.85
2023-11-15T06:22:47.973Z,9.80
2023-11-15T06:25:20.306Z,7.40
2023-11-15T06:27:50.545Z,7.13
2023-11-15T06:30:21.341Z,8.30
2023-11-15T06:32:48.286Z,8.27
2023-11-15T06:35:21.091Z,7.63
2023-11-15T06:37:51.141Z,5.90
2023-11-15T06:40:18.640Z,6.32
2023-11-15T06:42:45.849Z,6.45
2023-11-15T06:45:15.694Z,6.55
2023-11-15T06:47:43.750Z,7.03
2023-11-15T06:50:11.667Z,6.30
2023-11-15T06:52:39.413Z,5.90
2023-11-15T06:55:10.746Z,5.80
2023-11-15T06:57:42.899Z,6.03
2023-11-15T07:00:14.735Z,6.35
2023-11-15T07:02:44.997Z,6.38
2023-11-15T07:05:12.201Z,6.60
2023-11-15T07:07:39.340Z,6.70
2023-11-15T07:10:08.059Z,6.32
2023-11-15T07:12:39.485Z,6.13
2023-11-15T07:15:15.052Z,6.75
2023-11-15T07:17:42.089Z,6.25
2023-11-15T07:20:11.236Z,7.18
2023-11-15T07:22:38.634Z,7.13
2023-11-15T07:25:08.223Z,6.97
2023-11-15T07:27:35.775Z,6.75
2023-11-15T07:30:02.916Z,7.43
2023-11-15T07:32:29.936Z,6.35
2023-11-15T07:34:56.979Z,6.00
2023-11-15T07:37:24.126Z,6.10
2023-11-15T07:39:51.501Z,4.85
2023-11-15T07:42:18.504Z,5.00
2023-11-15T07:44:46.924Z,5.15
2023-11-15T07:47:15.867Z,5.70
2023-11-15T07:49:42.757Z,5.55
2023-11-15T07:52:09.703Z,5.65
2023-11-15T07:54:36.601Z,5.72
2023-11-15T07:57:04.417Z,6.15
2023-11-15T07:59:32.226Z,5.82
2023-11-15T08:01:59.990Z,5.63
2023-11-15T08:04:27.754Z,5.30
2023-11-15T08:06:54.891Z,4.88
2023-11-15T08:09:28.692Z,5.55
2023-11-15T08:11:57.730Z,4.90
2023-11-15T08:14:26.494Z,4.97
2023-11-15T08:16:54.603Z,4.90
2023-11-15T08:19:21.912Z,4.60
2023-11-15T08:21:49.558Z,5.90
2023-11-15T08:24:22.693Z,5.22
2023-11-15T08:26:54.383Z,4.45
2023-11-15T08:29:22.335Z,5.32
2023-11-15T08:31:50.438Z,4.95
2023-11-15T08:34:21.145Z,5.03
2023-11-15T08:36:50.482Z,4.88
2023-11-15T08:39:18.136Z,5.28
2023-11-15T08:41:48.174Z,4.47
2023-11-15T08:44:16.447Z,5.65
2023-11-15T08:46:45.882Z,5.20
2023-11-15T08:49:15.001Z,4.53
2023-11-15T08:51:43.394Z,4.55
2023-11-15T08:54:11.515Z,5.63
2023-11-15T08:56:42.352Z,4.70
2023-11-15T08:59:15.863Z,4.35
2023-11-15T09:01:44.013Z,4.10
2023-11-15T09:04:14.401Z,4.82
2023-11-15T09:06:48.811Z,4.68
2023-11-15T09:09:17.246Z,4.57
2023-11-15T09:11:45.563Z,4.55
2023-11-15T09:14:15.928Z,5.10
2023-11-15T09:16:43.635Z,4.35
2023-11-15T09:19:17.295Z,4.72
2023-11-15T09:21:49.277Z,4.38
2023-11-15T09:24:23.904Z,4.20
2023-11-15T09:26:51.726Z,4.18
2023-11-15T09:29:20.458Z,4.13
2023-11-15T09:31:47.458Z,3.88
2023-11-15T09:34:14.581Z,4.35
2023-11-15T09:36:43.868Z,4.97
2023-11-15T09:39:19.444Z,4.38
2023-11-15T09:41:55.258Z,4.65
2023-11-15T09:44:27.381Z,4.32
2023-11-15T09:46:55.469Z,4.72
2023-11-15T09:49:29.945Z,4.72
2023-11-15T09:52:03.281Z,4.13
2023-11-15T09:54:38.246Z,3.53
2023-11-15T09:57:10.713Z,3.88
2023-11-15T09:59:56.631Z,4.75
2023-11-15T10:02:36.622Z,4.30
2023-11-15T10:05:25.372Z,4.40
2023-11-15T10:08:20.835Z,4.40
2023-11-15T10:11:22.336Z,5.18
2023-11-15T10:14:08.738Z,4.60
2023-11-15T10:16:38.793Z,4.85
2023-11-15T10:19:28.095Z,4.82
2023-11-15T10:22:06.600Z,4.57
2023-11-15T10:24:46.508Z,5.13
2023-11-15T10:27:23.243Z,4.85
2023-11-15T10:29:53.633Z,4.60
2023-11-15T10:32:27.362Z,4.88
2023-11-15T10:35:12.605Z,5.03
2023-11-15T10:37:49.922Z,4.90
2023-11-15T10:40:17.843Z,4.85
2023-11-15T10:42:53.512Z,5.22
2023-11-15T10:45:24.166Z,5.03
2023-11-15T10:48:16.786Z,5.50
2023-11-15T10:50:54.868Z,4.57
2023-11-15T10:53:23.730Z,5.30
2023-11-15T10:55:57.804Z,6.07
2023-11-15T10:58:32.054Z,6.28
2023-11-15T11:01:02.843Z,5.35
2023-11-15T11:03:38.875Z,5.20
2023-11-15T11:06:16.637Z,4.80
2023-11-15T11:08:57.605Z,5.32
2023-11-15T11:11:41.966Z,5.03
2023-11-15T11:14:22.509Z,4.68
2023-11-15T11:16:50.800Z,5.60
2023-11-15T11:19:27.061Z,4.20
2023-11-15T11:22:03.004Z,5.30
2023-11-15T11:27:26.000Z,4.65
2023-11-15T11:29:58.887Z,5.05
2023-11-15T11:32:33.246Z,5.53
2023-11-15T11:35:15.785Z,4.88
2023-11-15T11:37:51.467Z,4.95
2023-11-15T11:40:39.528Z,5.80
2023-11-15T11:43:23.748Z,6.07
2023-11-15T11:45:55.223Z,6.05
2023-11-15T11:48:24.691Z,6.10
2023-11-15T11:51:07.356Z,5.20
2023-11-15T11:53:43.709Z,6.30
2023-11-15T11:56:17.466Z,6.15
2023-11-15T11:58:47.709Z,7.00
2023-11-15T12:01:21.349Z,6.80
2023-11-15T12:03:51.889Z,7.53
2023-11-15T12:06:24.747Z,6.13
2023-11-15T12:08:57.753Z,6.60
2023-11-15T12:11:24.893Z,6.18
2023-11-15T12:14:01.986Z,6.38
2023-11-15T12:16:37.106Z,5.93
2023-11-15T12:19:10.995Z,6.40
2023-11-15T12:21:54.063Z,5.65
2023-11-15T12:24:26.207Z,5.47
2023-11-15T12:27:00.426Z,5.05
2023-11-15T12:29:29.102Z,6.30
2023-11-15T12:32:14.384Z,5.25
2023-11-15T12:34:45.881Z,5.38
2023-11-15T12:37:18.768Z,6.03
2023-11-15T12:39:46.373Z,5.72
2023-11-15T12:42:13.380Z,5.85
2023-11-15T12:44:44.009Z,5.32
2023-11-15T12:47:17.919Z,6.25
2023-11-15T12:49:50.898Z,6.65
2023-11-15T12:52:44.857Z,6.90
2023-11-15T12:55:18.362Z,6.30
2023-11-15T12:57:53.597Z,6.38
2023-11-15T13:00:30.197Z,7.10
2023-11-15T13:02:57.251Z,7.38
2023-11-15T13:05:29.207Z,6.40
2023-11-15T13:07:56.878Z,7.70
2023-11-15T13:10:23.908Z,8.05
2023-11-15T13:12:50.873Z,7.50
2023-11-15T13:15:19.410Z,8.07
2023-11-15T13:17:46.873Z,7.05
2023-11-15T13:20:16.674Z,7.68
2023-11-15T13:22:45.560Z,6.82
2023-11-15T13:25:12.661Z,7.18
2023-11-15T13:27:39.842Z,7.72
2023-11-15T13:30:08.192Z,7.60
2023-11-15T13:32:36.451Z,7.05
2023-11-15T13:35:09.270Z,7.03
2023-11-15T13:37:36.280Z,7.47
2023-11-15T13:40:07.218Z,8.15
2023-11-15T13:42:34.286Z,8.20
2023-11-15T13:45:01.816Z,7.93
2023-11-15T13:47:31.020Z,8.00
2023-11-15T13:49:58.018Z,7.82
2023-11-15T13:52:25.070Z,7.70
2023-11-15T13:54:51.996Z,7.93
2023-11-15T13:57:19.607Z,7.53
2023-11-15T13:59:46.758Z,7.88
2023-11-15T14:02:14.840Z,7.10
2023-11-15T14:04:41.817Z,6.57
2023-11-15T14:07:08.697Z,6.63
2023-11-15T14:09:37.519Z,6.85
2023-11-15T14:12:06.336Z,6.93
2023-11-15T14:14:33.360Z,7.43
2023-11-15T14:17:08.024Z,7.22
2023-11-15T14:19:35.427Z,7.07
2023-11-15T14:22:02.389Z,6.88
2023-11-15T14:24:29.711Z,6.50
2023-11-15T14:26:56.686Z,6.75
2023-11-15T14:29:24.999Z,6.82
2023-11-15T14:31:52.628Z,7.00
2023-11-15T14:34:21.240Z,7.05
2023-11-15T14:36:50.139Z,7.13
2023-11-15T14:39:20.163Z,6.97
2023-11-15T14:41:47.247Z,6.88
2023-11-15T14:44:14.159Z,9.02
2023-11-15T14:46:42.325Z,7.55
2023-11-15T14:49:09.421Z,7.63
2023-11-15T14:51:37.104Z,7.25
2023-11-15T14:54:04.720Z,8.55
2023-11-15T14:56:31.721Z,7.88
2023-11-15T14:59:00.459Z,8.18
2023-11-15T15:01:28.678Z,6.72
2023-11-15T15:03:55.939Z,8.40
2023-11-15T15:06:23.287Z,8.27
2023-11-15T15:08:50.563Z,8.07
2023-11-15T15:11:17.812Z,7.47
2023-11-15T15:13:44.719Z,8.07
2023-11-15T15:16:13.096Z,6.93
2023-11-15T15:18:40.969Z,7.80
2023-11-15T15:21:09.275Z,7.40
2023-11-15T15:23:36.405Z,7.82
2023-11-15T15:26:05.031Z,7.38
2023-11-15T15:28:32.486Z,8.13
2023-11-15T15:30:59.562Z,7.68
2023-11-15T15:33:27.586Z,6.25
2023-11-15T15:35:54.623Z,7.43
2023-11-15T15:38:21.669Z,7.05
2023-11-15T15:40:49.532Z,6.00
2023-11-15T15:43:16.760Z,6.32
2023-11-15T15:45:46.275Z,6.10
2023-11-15T15:48:13.980Z,5.20
2023-11-15T15:50:41.217Z,6.63
2023-11-15T15:53:08.244Z,6.65
2023-11-15T15:55:35.087Z,7.03
2023-11-15T15:58:01.993Z,5.78
2023-11-15T16:00:28.980Z,6.65
2023-11-15T16:02:55.934Z,6.93
2023-11-15T16:05:23.043Z,6.40
2023-11-15T16:07:50.044Z,6.60
2023-11-15T16:10:17.114Z,6.15
2023-11-15T16:12:44.096Z,6.15
2023-11-15T16:15:18.313Z,6.68
2023-11-15T16:17:46.014Z,6.18
2023-11-15T16:20:13.762Z,6.57
2023-11-15T16:22:40.971Z,6.70
2023-11-15T16:25:08.244Z,6.28
2023-11-15T16:27:37.559Z,6.35
2023-11-15T16:30:15.205Z,6.13
2023-11-15T16:32:43.571Z,6.88
2023-11-15T16:35:10.740Z,6.50
2023-11-15T16:37:40.810Z,6.68
2023-11-15T16:40:11.277Z,6.65
2023-11-15T16:42:40.118Z,7.47
2023-11-15T16:45:09.024Z,7.95
2023-11-15T16:47:37.037Z,7.30
2023-11-15T16:50:06.254Z,7.60
2023-11-15T16:52:34.466Z,9.13
2023-11-15T16:55:05.151Z,9.95
2023-11-15T16:57:32.313Z,9.35
2023-11-15T17:00:00.178Z,8.40
2023-11-15T17:02:27.484Z,8.85
2023-11-15T17:04:54.521Z,8.88
2023-11-15T17:07:22.451Z,8.05
2023-11-15T17:09:53.043Z,8.50
2023-11-15T17:12:21.017Z,7.63
2023-11-15T17:14:48.134Z,7.57
2023-11-15T17:17:16.642Z,7.55
2023-11-15T17:19:44.261Z,8.63
2023-11-15T17:22:14.218Z,8.38
2023-11-15T17:24:41.366Z,7.70
2023-11-15T17:27:09.788Z,8.50
2023-11-15T17:29:37.184Z,7.85
2023-11-15T17:32:04.554Z,7.28
2023-11-15T17:34:31.858Z,6.55
2023-11-15T17:36:58.832Z,6.95
2023-11-15T17:39:26.556Z,6.80
2023-11-15T17:41:56.954Z,6.55
2023-11-15T17:44:24.200Z,5.72
2023-11-15T17:46:51.521Z,6.30
2023-11-15T17:49:18.578Z,6.10
2023-11-15T17:51:46.437Z,6.43
2023-11-15T17:54:15.555Z,6.25
2023-11-15T17:56:43.007Z,5.82
2023-11-15T17:59:10.045Z,5.40
2023-11-15T18:01:39.615Z,5.90
2023-11-15T18:04:10.909Z,5.20
2023-11-15T18:06:38.685Z,5.55
2023-11-15T18:09:08.090Z,5.80
2023-11-15T18:11:35.941Z,6.18
2023-11-15T18:14:03.053Z,6.38
2023-11-15T18:16:31.659Z,5.43
2023-11-15T18:19:06.011Z,5.95
2023-11-15T18:21:33.475Z,5.60
2023-11-15T18:24:01.489Z,5.82
2023-11-15T18:26:32.370Z,5.47
2023-11-15T18:29:02.076Z,5.65
2023-11-15T18:31:29.603Z,6.22
2023-11-15T18:33:59.199Z,6.40
2023-11-15T18:36:26.781Z,5.80
2023-11-15T18:38:54.016Z,6.30
2023-11-15T18:41:21.322Z,6.30
2023-11-15T18:43:50.355Z,6.95
2023-11-15T18:46:17.542Z,6.63
2023-11-15T18:48:44.685Z,6.72
2023-11-15T18:51:12.800Z,6.55
2023-11-15T18:53:40.631Z,6.78
2023-11-15T18:56:08.178Z,6.50
2023-11-15T18:58:36.884Z,6.82
2023-11-15T19:01:04.140Z,7.50
2023-11-15T19:03:31.237Z,7.70
2023-11-15T19:05:58.325Z,7.03
2023-11-15T19:08:25.244Z,7.43
2023-11-15T19:10:55.611Z,8.40
2023-11-15T19:13:23.066Z,7.43
2023-11-15T19:15:51.753Z,8.68
2023-11-15T19:18:20.391Z,7.63
2023-11-15T19:20:48.540Z,8.55
2023-11-15T19:23:16.386Z,8.40
2023-11-15T19:25:43.373Z,8.55
2023-11-15T19:28:10.348Z,7.65
2023-11-15T19:30:37.318Z,7.93
2023-11-15T19:33:04.468Z,8.75
2023-11-15T19:35:31.654Z,9.02
2023-11-15T19:37:58.650Z,8.23
2023-11-15T19:40:25.801Z,8.75
2023-11-15T19:42:52.743Z,8.68
2023-11-15T19:45:21.667Z,8.80
2023-11-15T19:47:48.956Z,9.18
2023-11-15T19:50:16.933Z,11.27
2023-11-15T19:52:45.377Z,12.90
2023-11-15T19:55:14.713Z,12.05
2023-11-15T19:57:41.755Z,11.65
2023-11-15T20:00:13.152Z,12.13
2023-11-15T20:02:46.930Z,12.52
2023-11-15T20:05:15.376Z,12.93
2023-11-15T20:07:42.788Z,10.48
2023-11-15T20:10:12.949Z,10.57
2023-11-15T20:12:44.399Z,10.35
2023-11-15T20:15:12.217Z,9.45
2023-11-15T20:17:40.395Z,10.05
2023-11-15T20:20:10.922Z,10.10
2023-11-15T20:22:45.592Z,10.70
2023-11-15T20:25:19.407Z,9.57
2023-11-15T20:27:46.419Z,9.63
2023-11-15T20:30:14.569Z,9.48
2023-11-15T20:32:41.718Z,10.32
2023-11-15T20:35:09.128Z,9.68
2023-11-15T20:37:36.382Z,10.45
2023-11-15T20:40:06.081Z,11.60
2023-11-15T20:42:33.457Z,11.43
2023-11-15T20:45:00.677Z,13.15
2023-11-15T20:47:27.923Z,12.32
2023-11-15T20:49:56.538Z,11.63
2023-11-15T20:52:23.414Z,10.82
2023-11-15T20:54:50.625Z,11.85
2023-11-15T20:57:18.201Z,10.88
2023-11-15T20:59:45.200Z,10.43
2023-11-15T21:02:12.605Z,11.00
2023-11-15T21:04:40.831Z,10.65
2023-11-15T21:07:08.376Z,10.00
2023-11-15T21:09:39.493Z,9.93
2023-11-15T21:12:06.583Z,9.75
2023-11-15T21:14:34.505Z,11.35
2023-11-15T21:17:01.660Z,10.82
2023-11-15T21:19:28.641Z,13.10
2023-11-15T21:21:56.127Z,10.73
2023-11-15T21:24:23.616Z,10.52
2023-11-15T21:26:54.809Z,10.45
2023-11-15T21:29:22.846Z,9.95
2023-11-15T21:31:51.528Z,10.02
2023-11-15T21:34:18.415Z,9.95
2023-11-15T21:36:45.582Z,10.10
2023-11-15T21:39:12.718Z,9.73
2023-11-15T21:41:39.690Z,8.93
2023-11-15T21:44:06.654Z,9.52
2023-11-15T21:46:33.797Z,9.10
2023-11-15T21:49:01.629Z,9.63
2023-11-15T21:51:28.870Z,8.95
2023-11-15T21:53:57.027Z,9.63
2023-11-15T21:56:23.976Z,9.85
2023-11-15T21:58:51.330Z,9.82
2023-11-15T22:01:18.368Z,9.27
2023-11-15T22:03:45.532Z,10.13
2023-11-15T22:06:12.624Z,9.60
2023-11-15T22:08:40.127Z,10.07
2023-11-15T22:11:07.226Z,10.35
2023-11-15T22:13:34.130Z,11.32
2023-11-15T22:16:01.104Z,9.73
2023-11-15T22:18:30.924Z,10.02
2023-11-15T22:20:58.295Z,10.40
2023-11-15T22:23:25.875Z,10.38
2023-11-15T22:25:53.083Z,11.07
2023-11-15T22:28:20.060Z,10.57
2023-11-15T22:30:48.471Z,10.43
2023-11-15T22:33:15.845Z,10.73
2023-11-15T22:35:49.289Z,10.88
2023-11-15T22:38:16.985Z,10.68
2023-11-15T22:40:43.882Z,9.95
2023-11-15T22:43:11.461Z,11.35
2023-11-15T22:45:38.506Z,10.90
2023-11-15T22:48:06.001Z,11.00
2023-11-15T22:50:33.200Z,11.20
2023-11-15T22:53:00.038Z,11.23
2023-11-15T22:55:26.947Z,10.68
2023-11-15T22:57:53.905Z,11.50
2023-11-15T23:00:33.086Z,11.60
2023-11-15T23:03:10.574Z,11.05
2023-11-15T23:05:39.592Z,11.05
2023-11-15T23:08:07.113Z,10.90
2023-11-15T23:10:35.325Z,11.98
2023-11-15T23:13:02.555Z,10.35
2023-11-15T23:15:31.491Z,11.60
2023-11-15T23:17:59.366Z,11.77
2023-11-15T23:20:28.104Z,10.65
2023-11-15T23:22:56.475Z,11.30
2023-11-15T23:25:27.258Z,11.35
2023-11-15T23:27:57.081Z,10.48
2023-11-15T23:30:27.756Z,10.93
2023-11-15T23:32:54.725Z,11.55
2023-11-15T23:35:21.664Z,11.50
2023-11-15T23:37:49.250Z,10.80
2023-11-15T23:40:16.765Z,10.10
2023-11-15T23:42:46.636Z,11.32
2023-11-15T23:45:15.604Z,10.68
2023-11-15T23:47:42.944Z,10.65
2023-11-15T23:50:10.494Z,10.23
2023-11-15T23:52:37.802Z,10.30
2023-11-15T23:55:05.599Z,9.68
2023-11-15T23:57:33.697Z,10.20
